createdAt,value
2018-04-29T00:01:49.497Z,9.30
2018-04-29T00:04:17.926Z,9.40
2018-04-29T00:06:51.227Z,9.30
2018-04-29T00:09:19.681Z,9.40
2018-04-29T00:12:02.584Z,9.30
2018-04-29T00:14:32.833Z,9.30
2018-04-29T00:17:01.738Z,9.20
2018-04-29T00:19:30.348Z,9.20
2018-04-29T00:21:59.089Z,9.20
2018-04-29T00:27:10.178Z,9.00
2018-04-29T00:29:39.667Z,9.00
2018-04-29T00:32:08.617Z,9.00
2018-04-29T00:34:37.086Z,8.20
2018-04-29T00:39:35.352Z,9.10
2018-04-29T00:42:08.617Z,9.00
2018-04-29T00:49:40.262Z,8.80
2018-04-29T00:54:42.004Z,8.60
2018-04-29T00:57:24.742Z,8.60
2018-04-29T01:02:22.994Z,8.50
2018-04-29T01:04:52.328Z,9.00
2018-04-29T01:07:22.171Z,8.50
2018-04-29T01:09:52.142Z,8.60
2018-04-29T01:12:22.451Z,8.50
2018-04-29T01:14:52.291Z,8.40
2018-04-29T01:17:33.219Z,8.30
2018-04-29T01:20:02.783Z,8.30
2018-04-29T01:25:00.750Z,8.20
2018-04-29T01:27:30.234Z,8.10
2018-04-29T01:29:59.475Z,8.10
2018-04-29T01:32:31.363Z,8.10
2018-04-29T01:35:00.084Z,8.10
2018-04-29T01:37:42.492Z,8.10
2018-04-29T01:40:12.342Z,8.10
2018-04-29T01:42:40.824Z,8.20
2018-04-29T01:45:09.298Z,8.20
2018-04-29T01:47:38.266Z,8.20
2018-04-29T01:50:07.090Z,8.30
2018-04-29T01:52:39.858Z,8.30
2018-04-29T01:55:08.556Z,8.90
2018-04-29T01:57:41.473Z,8.20
2018-04-29T02:00:09.940Z,8.30
2018-04-29T02:05:14.985Z,8.20
2018-04-29T02:07:47.855Z,8.20
2018-04-29T02:10:16.579Z,9.80
2018-04-29T02:12:58.961Z,8.40
2018-04-29T02:15:28.096Z,8.30
2018-04-29T02:17:56.598Z,8.30
2018-04-29T02:20:26.174Z,8.30
2018-04-29T02:22:56.052Z,8.20
2018-04-29T02:25:24.978Z,7.00
2018-04-29T02:27:57.969Z,8.20
2018-04-29T02:30:26.703Z,8.10
2018-04-29T02:33:07.427Z,8.10
2018-04-29T02:35:36.783Z,8.10
2018-04-29T02:38:06.359Z,8.00
2018-04-29T02:40:34.840Z,8.00
2018-04-29T02:43:07.178Z,8.20
2018-04-29T02:45:36.443Z,8.10
2018-04-29T02:48:18.891Z,8.00
2018-04-29T02:50:47.679Z,8.00
2018-04-29T02:53:16.913Z,8.00
2018-04-29T02:58:15.175Z,7.80
2018-04-29T03:00:44.290Z,7.90
2018-04-29T03:03:17.139Z,7.90
2018-04-29T03:05:47.345Z,7.90
2018-04-29T03:08:18.480Z,7.80
2018-04-29T03:10:47.920Z,7.90
2018-04-29T03:13:30.761Z,7.80
2018-04-29T03:15:59.246Z,7.80
2018-04-29T03:18:27.714Z,7.70
2018-04-29T03:20:56.991Z,7.70
2018-04-29T03:23:26.584Z,7.70
2018-04-29T03:25:55.454Z,7.70
2018-04-29T03:28:28.901Z,7.70
2018-04-29T03:33:30.068Z,7.70
2018-04-29T03:38:40.910Z,7.70
2018-04-29T03:41:09.775Z,7.70
2018-04-29T03:43:39.741Z,7.30
2018-04-29T03:46:08.215Z,7.40
2018-04-29T03:48:37.743Z,7.50
2018-04-29T03:51:06.582Z,7.40
2018-04-29T03:53:40.297Z,7.40
2018-04-29T03:56:09.043Z,7.30
2018-04-29T04:03:07.522Z,7.20
2018-04-29T04:08:06.699Z,7.10
2018-04-29T04:10:35.541Z,7.10
2018-04-29T04:13:04.000Z,7.20
2018-04-29T04:15:32.469Z,7.30
2018-04-29T04:18:02.826Z,7.30
2018-04-29T04:20:32.034Z,7.40
2018-04-29T04:23:01.651Z,7.60
2018-04-29T04:25:33.016Z,7.60
2018-04-29T04:28:02.688Z,7.70
2018-04-29T04:30:31.544Z,7.70
2018-04-29T04:33:00.635Z,7.80
2018-04-29T04:35:29.339Z,7.90
2018-04-29T04:38:01.748Z,7.90
2018-04-29T04:40:31.958Z,9.30
2018-04-29T04:43:03.751Z,8.10
2018-04-29T04:45:32.609Z,8.10
2018-04-29T04:48:14.727Z,8.20
2018-04-29T04:50:43.946Z,9.10
2018-04-29T04:53:13.709Z,8.30
2018-04-29T04:55:42.220Z,9.40
2018-04-29T04:58:14.335Z,8.60
2018-04-29T05:00:43.240Z,8.80
2018-04-29T05:03:15.955Z,8.70
2018-04-29T05:05:44.447Z,8.40
2018-04-29T05:08:16.734Z,8.30
2018-04-29T05:10:45.224Z,8.30
2018-04-29T05:13:17.782Z,8.40
2018-04-29T05:15:47.027Z,8.50
2018-04-29T05:18:20.235Z,8.50
2018-04-29T05:20:48.716Z,8.40
2018-04-29T05:23:21.802Z,8.20
2018-04-29T05:25:50.256Z,8.10
2018-04-29T05:28:23.613Z,8.10
2018-04-29T05:30:53.197Z,7.90
2018-04-29T05:33:26.134Z,7.90
2018-04-29T05:35:54.624Z,8.10
2018-04-29T05:38:29.299Z,8.00
2018-04-29T05:40:58.960Z,7.90
2018-04-29T05:43:40.715Z,7.80
2018-04-29T05:46:10.079Z,7.90
2018-04-29T05:48:39.630Z,7.90
2018-04-29T05:51:10.159Z,8.00
2018-04-29T05:53:39.387Z,8.20
2018-04-29T05:56:09.192Z,8.30
2018-04-29T05:58:39.904Z,8.20
2018-04-29T06:01:08.781Z,8.10
2018-04-29T06:03:42.729Z,8.30
2018-04-29T06:06:12.548Z,8.40
2018-04-29T06:08:45.160Z,8.40
2018-04-29T06:11:14.069Z,8.50
2018-04-29T06:13:55.799Z,8.50
2018-04-29T06:16:25.557Z,8.40
2018-04-29T06:18:54.041Z,8.50
2018-04-29T06:21:22.547Z,8.60
2018-04-29T06:23:52.382Z,8.80
2018-04-29T06:26:21.679Z,8.80
2018-04-29T06:29:02.626Z,8.90
2018-04-29T06:34:01.672Z,8.90
2018-04-29T06:36:32.494Z,9.00
2018-04-29T06:39:01.998Z,9.00
2018-04-29T06:41:32.034Z,9.20
2018-04-29T06:57:10.574Z,9.90
2018-04-29T06:59:40.126Z,9.70
2018-04-29T07:02:13.424Z,9.70
2018-04-29T07:04:42.700Z,9.90
2018-04-29T07:07:14.749Z,10.10
2018-04-29T07:09:44.027Z,10.80
2018-04-29T07:12:17.241Z,11.80
2018-04-29T07:14:47.514Z,13.20
2018-04-29T07:17:18.331Z,13.00
2018-04-29T07:19:47.198Z,12.90
2018-04-29T07:22:20.639Z,12.60
2018-04-29T07:24:49.487Z,12.30
2018-04-29T07:27:23.627Z,11.60
2018-04-29T07:29:52.890Z,11.50
2018-04-29T07:32:25.702Z,11.30
2018-04-29T07:34:54.583Z,10.90
2018-04-29T07:37:35.983Z,10.90
2018-04-29T07:40:05.663Z,10.80
2018-04-29T07:42:34.187Z,10.80
2018-04-29T07:45:03.399Z,10.80
2018-04-29T07:47:32.661Z,10.60
2018-04-29T07:50:01.922Z,10.90
2018-04-29T07:52:34.247Z,10.60
2018-04-29T07:55:02.692Z,10.70
2018-04-29T08:00:04.383Z,10.60
2018-04-29T08:02:37.921Z,10.40
2018-04-29T08:05:07.940Z,10.60
2018-04-29T08:07:41.138Z,10.60
2018-04-29T08:10:11.127Z,10.40
2018-04-29T08:12:43.686Z,10.40
2018-04-29T08:15:12.940Z,10.40
2018-04-29T08:17:46.612Z,10.50
2018-04-29T08:20:15.538Z,10.80
2018-04-29T08:22:48.601Z,10.50
2018-04-29T08:25:17.910Z,10.60
2018-04-29T08:27:51.808Z,10.70
2018-04-29T08:30:20.315Z,10.80
2018-04-29T08:32:53.699Z,11.30
2018-04-29T08:35:22.557Z,11.60
2018-04-29T08:38:04.871Z,11.40
2018-04-29T08:40:33.351Z,11.30
2018-04-29T08:45:32.420Z,11.50
2018-04-29T08:48:01.658Z,11.50
2018-04-29T08:50:32.090Z,11.90
2018-04-29T08:53:05.237Z,12.50
2018-04-29T08:55:34.078Z,12.80
2018-04-29T08:58:06.975Z,13.00
2018-04-29T09:00:35.473Z,13.40
2018-04-29T09:03:10.942Z,13.30
2018-04-29T09:05:39.674Z,13.30
2018-04-29T09:08:21.327Z,13.90
2018-04-29T09:13:19.364Z,15.80
2018-04-29T09:18:18.186Z,14.90
2018-04-29T09:20:47.318Z,16.50
2018-04-29T09:23:20.234Z,17.60
2018-04-29T09:25:49.569Z,17.70
2018-04-29T09:28:22.419Z,16.40
2018-04-29T09:30:50.936Z,15.70
2018-04-29T09:33:23.613Z,15.40
2018-04-29T09:35:52.399Z,15.30
2018-04-29T09:38:27.888Z,15.50
2018-04-29T09:40:57.111Z,15.60
2018-04-29T09:43:28.349Z,15.50
2018-04-29T09:45:57.139Z,15.30
2018-04-29T09:48:30.448Z,15.10
2018-04-29T09:50:59.643Z,15.00
2018-04-29T09:53:42.384Z,15.30
2018-04-29T09:56:12.355Z,15.10
2018-04-29T09:58:40.828Z,15.20
2018-04-29T10:06:16.263Z,15.00
2018-04-29T10:11:14.280Z,15.00
2018-04-29T10:13:44.001Z,15.10
2018-04-29T10:18:46.604Z,14.90
2018-04-29T10:34:30.651Z,15.60
2018-04-29T10:36:59.223Z,15.80
2018-04-29T10:39:27.981Z,15.70
2018-04-29T10:41:58.031Z,15.70
2018-04-29T10:44:27.282Z,15.80
2018-04-29T10:47:00.714Z,15.30
2018-04-29T10:49:29.183Z,15.60
2018-04-29T10:52:10.759Z,15.70
2018-04-29T10:57:09.310Z,15.70
2018-04-29T10:59:38.991Z,16.00
2018-04-29T11:02:10.873Z,16.20
2018-04-29T11:04:40.588Z,16.20
2018-04-29T11:07:13.054Z,16.10
2018-04-29T11:09:42.196Z,15.90
2018-04-29T11:12:14.650Z,17.10
2018-04-29T11:14:43.942Z,15.50
2018-04-29T11:17:16.063Z,15.80
2018-04-29T11:19:45.705Z,16.00
2018-04-29T11:24:48.232Z,16.60
2018-04-29T11:27:21.358Z,17.00
2018-04-29T11:29:49.873Z,16.90
2018-04-29T11:32:30.912Z,16.60
2018-04-29T11:34:59.399Z,16.60
2018-04-29T11:37:29.046Z,16.90
2018-04-29T11:39:57.567Z,17.20
2018-04-29T11:42:27.199Z,17.50
2018-04-29T11:44:55.960Z,17.70
2018-04-29T11:49:58.931Z,17.60
2018-04-29T11:52:39.754Z,17.90
2018-04-29T11:55:09.267Z,18.40
2018-04-29T11:57:38.020Z,18.40
2018-04-29T12:00:07.261Z,18.60
2018-04-29T12:02:37.297Z,18.60
2018-04-29T12:05:07.585Z,18.80
2018-04-29T12:10:06.907Z,18.70
2018-04-29T12:12:39.720Z,19.00
2018-04-29T12:15:08.748Z,19.10
2018-04-29T12:17:42.363Z,19.20
2018-04-29T12:20:12.236Z,19.40
2018-04-29T12:22:53.444Z,19.40
2018-04-29T12:25:22.950Z,19.50
2018-04-29T12:27:52.187Z,19.50
2018-04-29T12:30:20.660Z,19.70
2018-04-29T12:32:52.318Z,18.90
2018-04-29T12:37:54.928Z,19.90
2018-04-29T12:40:23.468Z,20.00
2018-04-29T12:42:55.787Z,20.10
2018-04-29T12:45:24.699Z,20.10
2018-04-29T12:47:58.108Z,20.30
2018-04-29T12:50:26.992Z,20.40
2018-04-29T12:53:00.768Z,20.40
2018-04-29T12:55:29.267Z,20.60
2018-04-29T12:58:03.066Z,20.50
2018-04-29T13:03:05.065Z,20.60
2018-04-29T13:05:35.077Z,20.80
2018-04-29T13:08:10.173Z,20.90
2018-04-29T13:10:38.710Z,20.90
2018-04-29T13:13:12.122Z,20.90
2018-04-29T13:15:40.975Z,21.10
2018-04-29T13:18:14.140Z,21.40
2018-04-29T13:20:42.624Z,21.80
2018-04-29T13:23:15.648Z,22.30
2018-04-29T13:25:44.826Z,22.60
2018-04-29T13:28:17.322Z,22.30
2018-04-29T13:30:46.609Z,22.60
2018-04-29T13:33:20.100Z,22.60
2018-04-29T13:35:49.439Z,22.70
2018-04-29T13:38:22.235Z,22.70
2018-04-29T13:40:51.472Z,22.30
2018-04-29T13:43:24.129Z,22.60
2018-04-29T13:45:52.905Z,22.40
2018-04-29T13:48:30.067Z,22.30
2018-04-29T13:50:58.580Z,22.10
2018-04-29T13:53:30.753Z,22.00
2018-04-29T13:55:59.311Z,22.20
2018-04-29T13:58:32.739Z,22.20
2018-04-29T14:01:02.624Z,22.20
2018-04-29T14:03:34.765Z,22.00
2018-04-29T14:06:03.989Z,21.90
2018-04-29T14:08:46.109Z,21.80
2018-04-29T14:11:14.846Z,21.90
2018-04-29T14:13:43.747Z,21.80
2018-04-29T14:16:13.050Z,21.80
2018-04-29T14:18:42.254Z,21.90
2018-04-29T14:21:11.474Z,22.10
2018-04-29T14:23:53.167Z,22.00
2018-04-29T14:26:22.080Z,21.90
2018-04-29T14:28:50.951Z,21.70
2018-04-29T14:31:19.476Z,21.70
2018-04-29T14:46:57.352Z,21.30
2018-04-29T14:49:26.945Z,21.20
2018-04-29T14:57:00.487Z,21.00
2018-04-29T14:59:30.002Z,22.50
2018-04-29T15:02:03.499Z,21.00
2018-04-29T15:07:06.631Z,20.80
2018-04-29T15:12:10.660Z,20.40
2018-04-29T15:14:39.107Z,20.20
2018-04-29T15:17:12.565Z,20.00
2018-04-29T15:19:49.107Z,19.90
2018-04-29T15:24:48.663Z,19.60
2018-04-29T15:27:17.142Z,19.60
2018-04-29T15:29:47.093Z,19.50
2018-04-29T15:32:18.175Z,19.50
2018-04-29T15:34:47.066Z,19.50
2018-04-29T15:37:20.195Z,19.50
2018-04-29T15:39:48.918Z,19.50
2018-04-29T15:42:22.715Z,19.60
2018-04-29T15:44:52.307Z,19.60
2018-04-29T15:47:33.498Z,19.70
2018-04-29T15:50:02.804Z,19.80
2018-04-29T15:55:02.224Z,19.60
2018-04-29T15:57:31.138Z,19.60
2018-04-29T15:59:59.664Z,19.80
2018-04-29T16:02:32.235Z,20.00
2018-04-29T16:05:02.966Z,20.20
2018-04-29T16:07:34.919Z,20.30
2018-04-29T16:10:03.495Z,20.50
2018-04-29T16:12:37.443Z,20.60
2018-04-29T16:15:05.927Z,20.70
2018-04-29T16:17:38.921Z,20.70
2018-04-29T16:20:08.179Z,20.80
2018-04-29T16:22:41.643Z,20.70
2018-04-29T16:25:10.130Z,20.60
2018-04-29T16:27:43.560Z,20.60
2018-04-29T16:30:12.067Z,20.50
2018-04-29T16:32:48.025Z,20.40
2018-04-29T16:35:17.915Z,20.40
2018-04-29T16:37:50.929Z,20.30
2018-04-29T16:40:19.784Z,20.20
2018-04-29T16:42:52.539Z,20.10
2018-04-29T16:45:22.120Z,20.00
2018-04-29T16:47:53.686Z,19.90
2018-04-29T16:50:22.588Z,19.90
2018-04-29T16:55:24.049Z,19.60
2018-04-29T16:57:56.563Z,19.50
2018-04-29T17:00:25.036Z,19.30
2018-04-29T17:02:53.974Z,19.30
2018-04-29T17:05:23.226Z,19.10
2018-04-29T17:07:52.469Z,19.00
2018-04-29T17:10:22.203Z,18.80
2018-04-29T17:12:50.691Z,18.70
2018-04-29T17:15:19.194Z,18.80
2018-04-29T17:17:48.918Z,18.90
2018-04-29T17:20:17.891Z,19.10
2018-04-29T17:22:47.930Z,19.10
2018-04-29T17:25:17.493Z,19.00
2018-04-29T17:30:16.639Z,18.80
2018-04-29T17:37:48.979Z,18.30
2018-04-29T17:40:21.044Z,17.40
2018-04-29T17:42:51.312Z,18.00
2018-04-29T17:45:25.752Z,17.90
2018-04-29T17:47:54.335Z,18.00
2018-04-29T17:50:35.315Z,18.40
2018-04-29T17:53:05.819Z,17.70
2018-04-29T17:55:35.131Z,17.70
2018-04-29T17:58:03.993Z,17.60
2018-04-29T18:00:33.303Z,17.40
2018-04-29T18:03:03.867Z,17.50
2018-04-29T18:05:33.905Z,17.30
2018-04-29T18:08:03.139Z,17.30
2018-04-29T18:10:36.287Z,17.40
2018-04-29T18:13:05.948Z,17.30
2018-04-29T18:15:39.264Z,17.20
2018-04-29T18:18:08.364Z,17.10
2018-04-29T18:20:56.482Z,17.20
2018-04-29T18:23:25.264Z,17.10
2018-04-29T18:25:55.151Z,17.10
2018-04-29T18:28:25.727Z,17.10
2018-04-29T18:30:54.539Z,17.10
2018-04-29T18:33:23.340Z,17.10
2018-04-29T18:35:52.234Z,17.10
2018-04-29T18:45:53.475Z,17.40
2018-04-29T18:48:22.617Z,17.00
2018-04-29T18:50:56.008Z,17.10
2018-04-29T18:53:25.004Z,17.10
2018-04-29T18:56:06.811Z,17.10
2018-04-29T18:58:36.430Z,17.00
2018-04-29T19:01:06.819Z,17.00
2018-04-29T19:03:35.380Z,17.00
2018-04-29T19:06:05.399Z,16.80
2018-04-29T19:08:34.664Z,16.80
2018-04-29T19:11:16.280Z,16.70
2018-04-29T19:13:45.653Z,16.70
2018-04-29T19:16:14.218Z,16.60
2018-04-29T19:18:42.751Z,16.60
2018-04-29T19:21:12.626Z,16.40
2018-04-29T19:28:43.347Z,16.40
2018-04-29T19:31:25.096Z,16.40
2018-04-29T19:33:55.091Z,16.30
2018-04-29T19:36:25.231Z,16.20
2018-04-29T19:38:54.967Z,16.10
2018-04-29T19:41:23.755Z,16.10
2018-04-29T19:43:52.758Z,16.10
2018-04-29T19:46:23.554Z,16.00
2018-04-29T19:48:52.780Z,16.00
2018-04-29T19:51:26.434Z,15.90
2018-04-29T19:53:55.763Z,15.90
2018-04-29T19:56:29.035Z,15.80
2018-04-29T19:58:58.536Z,15.90
2018-04-29T20:01:30.954Z,15.90
2018-04-29T20:06:33.286Z,15.90
2018-04-29T20:09:04.701Z,15.90
2018-04-29T20:11:34.127Z,15.80
2018-04-29T20:14:04.446Z,15.90
2018-04-29T20:16:37.289Z,15.80
2018-04-29T20:19:07.129Z,15.90
2018-04-29T20:21:38.919Z,15.90
2018-04-29T20:24:08.161Z,16.00
2018-04-29T20:26:41.279Z,15.90
2018-04-29T20:29:10.116Z,15.90
2018-04-29T20:31:51.619Z,15.90
2018-04-29T20:34:20.407Z,15.90
2018-04-29T20:36:48.881Z,15.90
2018-04-29T20:39:17.378Z,15.90
2018-04-29T20:41:49.676Z,15.90
2018-04-29T20:44:18.536Z,15.90
2018-04-29T20:46:51.086Z,16.00
2018-04-29T20:49:20.026Z,16.00
2018-04-29T20:51:52.867Z,16.10
2018-04-29T20:54:22.491Z,16.00
2018-04-29T20:57:05.186Z,15.90
2018-04-29T20:59:33.701Z,15.90
2018-04-29T21:02:02.194Z,16.00
2018-04-29T21:04:32.653Z,15.80
2018-04-29T21:07:02.259Z,15.30
2018-04-29T21:09:31.128Z,15.10
2018-04-29T21:12:04.295Z,14.90
2018-04-29T21:14:33.140Z,14.80
2018-04-29T21:17:06.288Z,14.80
2018-04-29T21:19:35.947Z,14.70
2018-04-29T21:22:09.095Z,14.00
2018-04-29T21:24:38.115Z,17.40
2018-04-29T21:27:12.127Z,14.70
2018-04-29T21:29:42.088Z,14.70
2018-04-29T21:32:15.259Z,14.90
2018-04-29T21:34:45.115Z,14.70
2018-04-29T21:37:17.657Z,13.80
2018-04-29T21:39:46.155Z,14.70
2018-04-29T21:42:18.332Z,14.70
2018-04-29T21:44:47.547Z,14.70
2018-04-29T21:47:24.703Z,14.50
2018-04-29T21:49:54.689Z,14.20
2018-04-29T21:52:23.232Z,14.20
2018-04-29T21:54:52.458Z,14.20
2018-04-29T21:59:53.779Z,14.20
2018-04-29T22:02:27.430Z,14.20
2018-04-29T22:04:58.038Z,14.20
2018-04-29T22:07:30.805Z,14.10
2018-04-29T22:10:00.080Z,14.00
2018-04-29T22:12:34.118Z,14.00
2018-04-29T22:15:04.156Z,13.90
2018-04-29T22:20:03.744Z,13.70
2018-04-29T22:22:36.803Z,13.50
2018-04-29T22:25:06.438Z,13.40
2018-04-29T22:27:47.530Z,13.20
2018-04-29T22:30:16.317Z,13.50
2018-04-29T22:32:45.375Z,13.10
2018-04-29T22:35:13.843Z,13.00
2018-04-29T22:37:43.674Z,13.00
2018-04-29T22:40:12.548Z,14.10
2018-04-29T22:42:44.898Z,13.10
2018-04-29T22:45:14.606Z,12.90
2018-04-29T22:47:48.745Z,12.70
2018-04-29T22:50:17.199Z,12.70
2018-04-29T22:57:58.803Z,12.70
2018-04-29T23:02:57.640Z,12.70
2018-04-29T23:05:26.134Z,12.70
2018-04-29T23:07:58.671Z,12.60
2018-04-29T23:10:27.830Z,12.60
2018-04-29T23:13:09.795Z,12.60
2018-04-29T23:18:09.279Z,12.60
2018-04-29T23:20:39.569Z,12.60
2018-04-29T23:23:09.938Z,12.50
2018-04-29T23:25:38.426Z,12.50
2018-04-29T23:28:11.239Z,12.40
2018-04-29T23:30:40.133Z,12.40
2018-04-29T23:33:12.975Z,12.40
2018-04-29T23:35:42.234Z,12.30
2018-04-29T23:40:44.896Z,12.30
2018-04-29T23:43:18.031Z,12.20
2018-04-29T23:45:47.292Z,12.20
2018-04-29T23:48:19.737Z,12.20
2018-04-29T23:50:48.214Z,12.20
2018-04-29T23:58:26.119Z,12.20
